sensor_id;sensor_type;location;lat;lon;timestamp;P1;durP1;ratioP1;P2;durP2;ratioP2
15354;SDS011;7777;52.254;9.618;2024-01-06T00:01:50;5.23;;;1.43;;
15354;SDS011;7777;52.254;9.618;2024-01-06T00:04:16;4.27;;;1.53;;
15354;SDS011;7777;52.254;9.618;2024-01-06T00:06:41;2.93;;;1.63;;
15354;SDS011;7777;52.254;9.618;2024-01-06T00:09:07;3.43;;;1.77;;
15354;SDS011;7777;52.254;9.618;2024-01-06T00:11:33;3.93;;;1.80;;
15354;SDS011;7777;52.254;9.618;2024-01-06T00:14:00;3.53;;;1.23;;
15354;SDS011;7777;52.254;9.618;2024-01-06T00:16:25;4.13;;;1.43;;
15354;SDS011;7777;52.254;9.618;2024-01-06T00:18:51;5.80;;;1.80;;
15354;SDS011;7777;52.254;9.618;2024-01-06T00:21:16;3.37;;;1.60;;
15354;SDS011;7777;52.254;9.618;2024-01-06T00:23:42;6.03;;;1.60;;
15354;SDS011;7777;52.254;9.618;2024-01-06T00:26:09;3.60;;;1.63;;
15354;SDS011;7777;52.254;9.618;2024-01-06T00:28:35;3.43;;;1.80;;
15354;SDS011;7777;52.254;9.618;2024-01-06T00:31:01;5.20;;;1.90;;
15354;SDS011;7777;52.254;9.618;2024-01-06T00:33:27;4.63;;;1.53;;
15354;SDS011;7777;52.254;9.618;2024-01-06T00:35:52;8.13;;;2.20;;
15354;SDS011;7777;52.254;9.618;2024-01-06T00:38:20;6.10;;;1.70;;
15354;SDS011;7777;52.254;9.618;2024-01-06T00:40:46;2.70;;;1.60;;
15354;SDS011;7777;52.254;9.618;2024-01-06T00:43:12;3.77;;;1.60;;
15354;SDS011;7777;52.254;9.618;2024-01-06T00:45:38;2.63;;;1.53;;
15354;SDS011;7777;52.254;9.618;2024-01-06T00:48:04;6.00;;;1.83;;
15354;SDS011;7777;52.254;9.618;2024-01-06T00:50:30;7.03;;;1.97;;
15354;SDS011;7777;52.254;9.618;2024-01-06T00:52:56;4.00;;;1.70;;
15354;SDS011;7777;52.254;9.618;2024-01-06T00:55:22;5.57;;;2.30;;
15354;SDS011;7777;52.254;9.618;2024-01-06T00:57:48;2.80;;;2.07;;
15354;SDS011;7777;52.254;9.618;2024-01-06T01:00:15;5.03;;;2.37;;
15354;SDS011;7777;52.254;9.618;2024-01-06T01:02:41;7.43;;;2.90;;
15354;SDS011;7777;52.254;9.618;2024-01-06T01:05:06;5.87;;;2.50;;
15354;SDS011;7777;52.254;9.618;2024-01-06T01:07:32;4.70;;;2.60;;
15354;SDS011;7777;52.254;9.618;2024-01-06T01:09:58;8.00;;;2.53;;
15354;SDS011;7777;52.254;9.618;2024-01-06T01:12:24;5.20;;;2.33;;
15354;SDS011;7777;52.254;9.618;2024-01-06T01:14:51;7.50;;;2.57;;
15354;SDS011;7777;52.254;9.618;2024-01-06T01:17:17;3.93;;;2.20;;
15354;SDS011;7777;52.254;9.618;2024-01-06T01:19:43;9.13;;;2.70;;
15354;SDS011;7777;52.254;9.618;2024-01-06T01:22:10;2.37;;;1.50;;
15354;SDS011;7777;52.254;9.618;2024-01-06T01:24:35;2.97;;;1.80;;
15354;SDS011;7777;52.254;9.618;2024-01-06T01:27:01;4.70;;;1.80;;
15354;SDS011;7777;52.254;9.618;2024-01-06T01:29:27;5.43;;;1.87;;
15354;SDS011;7777;52.254;9.618;2024-01-06T01:31:52;4.03;;;1.77;;
15354;SDS011;7777;52.254;9.618;2024-01-06T01:34:18;4.23;;;2.10;;
15354;SDS011;7777;52.254;9.618;2024-01-06T01:36:44;2.17;;;1.50;;
15354;SDS011;7777;52.254;9.618;2024-01-06T01:39:10;4.53;;;2.00;;
15354;SDS011;7777;52.254;9.618;2024-01-06T01:41:36;11.60;;;2.67;;
15354;SDS011;7777;52.254;9.618;2024-01-06T01:44:02;5.97;;;2.30;;
15354;SDS011;7777;52.254;9.618;2024-01-06T01:46:28;5.20;;;2.53;;
15354;SDS011;7777;52.254;9.618;2024-01-06T01:48:55;4.20;;;2.60;;
15354;SDS011;7777;52.254;9.618;2024-01-06T01:51:23;2.93;;;2.10;;
15354;SDS011;7777;52.254;9.618;2024-01-06T01:53:52;4.63;;;2.20;;
15354;SDS011;7777;52.254;9.618;2024-01-06T01:56:18;3.73;;;2.53;;
15354;SDS011;7777;52.254;9.618;2024-01-06T01:58:46;6.47;;;3.30;;
15354;SDS011;7777;52.254;9.618;2024-01-06T02:01:12;9.43;;;3.60;;
15354;SDS011;7777;52.254;9.618;2024-01-06T02:03:43;8.57;;;3.70;;
15354;SDS011;7777;52.254;9.618;2024-01-06T02:06:09;5.83;;;2.53;;
15354;SDS011;7777;52.254;9.618;2024-01-06T02:08:35;5.07;;;2.67;;
15354;SDS011;7777;52.254;9.618;2024-01-06T02:11:01;4.87;;;2.43;;
15354;SDS011;7777;52.254;9.618;2024-01-06T02:13:32;4.97;;;2.63;;
15354;SDS011;7777;52.254;9.618;2024-01-06T02:16:02;3.93;;;1.83;;
15354;SDS011;7777;52.254;9.618;2024-01-06T02:18:30;2.73;;;2.00;;
15354;SDS011;7777;52.254;9.618;2024-01-06T02:20:57;3.07;;;2.10;;
15354;SDS011;7777;52.254;9.618;2024-01-06T02:23:25;4.30;;;2.40;;
15354;SDS011;7777;52.254;9.618;2024-01-06T02:25:54;3.57;;;2.40;;
15354;SDS011;7777;52.254;9.618;2024-01-06T02:28:21;6.43;;;2.67;;
15354;SDS011;7777;52.254;9.618;2024-01-06T02:30:46;5.60;;;2.60;;
15354;SDS011;7777;52.254;9.618;2024-01-06T02:33:12;3.10;;;2.23;;
15354;SDS011;7777;52.254;9.618;2024-01-06T02:35:38;4.80;;;2.53;;
15354;SDS011;7777;52.254;9.618;2024-01-06T02:38:05;4.73;;;3.10;;
15354;SDS011;7777;52.254;9.618;2024-01-06T02:40:31;3.70;;;2.63;;
15354;SDS011;7777;52.254;9.618;2024-01-06T02:42:57;4.63;;;2.90;;
15354;SDS011;7777;52.254;9.618;2024-01-06T02:45:23;4.13;;;2.87;;
15354;SDS011;7777;52.254;9.618;2024-01-06T02:47:49;3.27;;;2.40;;
15354;SDS011;7777;52.254;9.618;2024-01-06T02:50:15;4.67;;;2.63;;
15354;SDS011;7777;52.254;9.618;2024-01-06T02:52:41;4.30;;;2.90;;
15354;SDS011;7777;52.254;9.618;2024-01-06T02:55:07;4.13;;;2.90;;
15354;SDS011;7777;52.254;9.618;2024-01-06T02:57:33;3.83;;;2.73;;
15354;SDS011;7777;52.254;9.618;2024-01-06T03:00:00;3.70;;;3.00;;
15354;SDS011;7777;52.254;9.618;2024-01-06T03:02:26;4.33;;;2.60;;
15354;SDS011;7777;52.254;9.618;2024-01-06T03:04:54;3.50;;;2.37;;
15354;SDS011;7777;52.254;9.618;2024-01-06T03:07:20;3.27;;;2.23;;
15354;SDS011;7777;52.254;9.618;2024-01-06T03:09:47;5.50;;;2.57;;
15354;SDS011;7777;52.254;9.618;2024-01-06T03:12:13;3.20;;;2.20;;
15354;SDS011;7777;52.254;9.618;2024-01-06T03:14:39;4.87;;;2.93;;
15354;SDS011;7777;52.254;9.618;2024-01-06T03:17:05;5.60;;;3.23;;
15354;SDS011;7777;52.254;9.618;2024-01-06T03:19:31;5.33;;;3.10;;
15354;SDS011;7777;52.254;9.618;2024-01-06T03:21:57;4.13;;;2.97;;
15354;SDS011;7777;52.254;9.618;2024-01-06T03:24:23;9.60;;;2.90;;
15354;SDS011;7777;52.254;9.618;2024-01-06T03:26:50;4.20;;;3.10;;
15354;SDS011;7777;52.254;9.618;2024-01-06T03:29:17;5.80;;;3.47;;
15354;SDS011;7777;52.254;9.618;2024-01-06T03:31:43;3.93;;;3.10;;
15354;SDS011;7777;52.254;9.618;2024-01-06T03:34:10;4.13;;;2.77;;
15354;SDS011;7777;52.254;9.618;2024-01-06T03:36:37;4.93;;;2.60;;
15354;SDS011;7777;52.254;9.618;2024-01-06T03:39:03;4.07;;;2.60;;
15354;SDS011;7777;52.254;9.618;2024-01-06T03:41:29;3.40;;;2.40;;
15354;SDS011;7777;52.254;9.618;2024-01-06T03:43:55;3.63;;;2.37;;
15354;SDS011;7777;52.254;9.618;2024-01-06T03:46:21;4.60;;;2.80;;
15354;SDS011;7777;52.254;9.618;2024-01-06T03:48:47;4.03;;;2.80;;
15354;SDS011;7777;52.254;9.618;2024-01-06T03:51:13;3.90;;;2.60;;
15354;SDS011;7777;52.254;9.618;2024-01-06T03:53:39;3.67;;;2.70;;
15354;SDS011;7777;52.254;9.618;2024-01-06T03:56:07;4.60;;;2.50;;
15354;SDS011;7777;52.254;9.618;2024-01-06T03:58:33;4.53;;;2.37;;
15354;SDS011;7777;52.254;9.618;2024-01-06T04:00:59;6.27;;;2.57;;
15354;SDS011;7777;52.254;9.618;2024-01-06T04:03:26;2.30;;;1.90;;
15354;SDS011;7777;52.254;9.618;2024-01-06T04:05:51;3.27;;;2.27;;
15354;SDS011;7777;52.254;9.618;2024-01-06T04:08:17;3.07;;;2.53;;
15354;SDS011;7777;52.254;9.618;2024-01-06T04:10:43;3.30;;;2.30;;
15354;SDS011;7777;52.254;9.618;2024-01-06T04:13:10;2.33;;;1.90;;
15354;SDS011;7777;52.254;9.618;2024-01-06T04:15:36;4.60;;;2.40;;
15354;SDS011;7777;52.254;9.618;2024-01-06T04:18:03;4.70;;;2.60;;
15354;SDS011;7777;52.254;9.618;2024-01-06T04:20:30;4.40;;;2.00;;
15354;SDS011;7777;52.254;9.618;2024-01-06T04:22:56;8.83;;;2.33;;
15354;SDS011;7777;52.254;9.618;2024-01-06T04:25:22;8.10;;;2.40;;
15354;SDS011;7777;52.254;9.618;2024-01-06T04:27:48;5.80;;;2.40;;
15354;SDS011;7777;52.254;9.618;2024-01-06T04:30:15;3.30;;;2.37;;
15354;SDS011;7777;52.254;9.618;2024-01-06T04:32:42;2.77;;;2.00;;
15354;SDS011;7777;52.254;9.618;2024-01-06T04:35:08;5.10;;;2.00;;
15354;SDS011;7777;52.254;9.618;2024-01-06T04:37:34;4.97;;;2.80;;
15354;SDS011;7777;52.254;9.618;2024-01-06T04:40:00;4.67;;;2.57;;
15354;SDS011;7777;52.254;9.618;2024-01-06T04:42:27;3.97;;;3.00;;
15354;SDS011;7777;52.254;9.618;2024-01-06T04:44:53;4.83;;;3.47;;
15354;SDS011;7777;52.254;9.618;2024-01-06T04:47:19;4.60;;;2.73;;
15354;SDS011;7777;52.254;9.618;2024-01-06T04:49:44;3.80;;;3.10;;
15354;SDS011;7777;52.254;9.618;2024-01-06T04:52:11;4.03;;;2.67;;
15354;SDS011;7777;52.254;9.618;2024-01-06T04:54:37;4.73;;;3.03;;
15354;SDS011;7777;52.254;9.618;2024-01-06T04:57:03;4.37;;;2.70;;
15354;SDS011;7777;52.254;9.618;2024-01-06T04:59:30;4.57;;;2.40;;
15354;SDS011;7777;52.254;9.618;2024-01-06T05:01:57;3.83;;;2.87;;
15354;SDS011;7777;52.254;9.618;2024-01-06T05:04:23;6.20;;;3.50;;
15354;SDS011;7777;52.254;9.618;2024-01-06T05:06:50;3.80;;;2.50;;
15354;SDS011;7777;52.254;9.618;2024-01-06T05:09:16;3.07;;;2.47;;
15354;SDS011;7777;52.254;9.618;2024-01-06T05:11:43;4.30;;;2.67;;
15354;SDS011;7777;52.254;9.618;2024-01-06T05:14:09;3.63;;;2.60;;
15354;SDS011;7777;52.254;9.618;2024-01-06T05:16:35;3.80;;;2.73;;
15354;SDS011;7777;52.254;9.618;2024-01-06T05:19:01;3.97;;;2.60;;
15354;SDS011;7777;52.254;9.618;2024-01-06T05:21:27;6.43;;;3.30;;
15354;SDS011;7777;52.254;9.618;2024-01-06T05:23:53;5.93;;;2.23;;
15354;SDS011;7777;52.254;9.618;2024-01-06T05:26:19;4.20;;;2.63;;
15354;SDS011;7777;52.254;9.618;2024-01-06T05:28:44;4.40;;;2.13;;
15354;SDS011;7777;52.254;9.618;2024-01-06T05:31:10;2.97;;;2.30;;
15354;SDS011;7777;52.254;9.618;2024-01-06T05:33:36;4.03;;;2.43;;
15354;SDS011;7777;52.254;9.618;2024-01-06T05:36:02;3.60;;;2.53;;
15354;SDS011;7777;52.254;9.618;2024-01-06T05:38:29;3.57;;;2.60;;
15354;SDS011;7777;52.254;9.618;2024-01-06T05:40:56;3.43;;;2.47;;
15354;SDS011;7777;52.254;9.618;2024-01-06T05:43:22;5.27;;;2.33;;
15354;SDS011;7777;52.254;9.618;2024-01-06T05:45:49;8.13;;;2.70;;
15354;SDS011;7777;52.254;9.618;2024-01-06T05:48:15;3.17;;;2.27;;
15354;SDS011;7777;52.254;9.618;2024-01-06T05:50:41;4.00;;;2.70;;
15354;SDS011;7777;52.254;9.618;2024-01-06T05:53:06;4.43;;;2.60;;
15354;SDS011;7777;52.254;9.618;2024-01-06T05:55:32;4.67;;;2.30;;
15354;SDS011;7777;52.254;9.618;2024-01-06T05:57:58;4.60;;;3.30;;
15354;SDS011;7777;52.254;9.618;2024-01-06T06:00:25;4.57;;;3.10;;
15354;SDS011;7777;52.254;9.618;2024-01-06T06:02:50;8.27;;;3.23;;
15354;SDS011;7777;52.254;9.618;2024-01-06T06:05:16;4.37;;;2.80;;
15354;SDS011;7777;52.254;9.618;2024-01-06T06:07:42;6.50;;;3.20;;
15354;SDS011;7777;52.254;9.618;2024-01-06T06:10:10;4.50;;;3.37;;
15354;SDS011;7777;52.254;9.618;2024-01-06T06:12:36;9.37;;;5.17;;
15354;SDS011;7777;52.254;9.618;2024-01-06T06:15:03;9.53;;;6.73;;
15354;SDS011;7777;52.254;9.618;2024-01-06T06:17:31;11.40;;;7.70;;
15354;SDS011;7777;52.254;9.618;2024-01-06T06:19:57;11.90;;;9.37;;
15354;SDS011;7777;52.254;9.618;2024-01-06T06:22:23;13.17;;;9.10;;
15354;SDS011;7777;52.254;9.618;2024-01-06T06:24:56;13.33;;;9.00;;
15354;SDS011;7777;52.254;9.618;2024-01-06T06:27:24;13.47;;;8.80;;
15354;SDS011;7777;52.254;9.618;2024-01-06T06:29:51;14.77;;;8.97;;
15354;SDS011;7777;52.254;9.618;2024-01-06T06:32:18;12.03;;;8.80;;
15354;SDS011;7777;52.254;9.618;2024-01-06T06:34:44;9.97;;;7.47;;
15354;SDS011;7777;52.254;9.618;2024-01-06T06:37:09;14.43;;;9.93;;
15354;SDS011;7777;52.254;9.618;2024-01-06T06:39:35;14.67;;;10.70;;
15354;SDS011;7777;52.254;9.618;2024-01-06T06:42:02;15.40;;;10.77;;
15354;SDS011;7777;52.254;9.618;2024-01-06T06:44:28;15.40;;;10.63;;
15354;SDS011;7777;52.254;9.618;2024-01-06T06:46:54;18.67;;;11.10;;
15354;SDS011;7777;52.254;9.618;2024-01-06T06:49:20;14.57;;;10.13;;
15354;SDS011;7777;52.254;9.618;2024-01-06T06:51:46;14.10;;;9.87;;
15354;SDS011;7777;52.254;9.618;2024-01-06T06:54:13;15.63;;;11.13;;
15354;SDS011;7777;52.254;9.618;2024-01-06T06:56:40;13.70;;;10.33;;
15354;SDS011;7777;52.254;9.618;2024-01-06T06:59:07;19.00;;;10.30;;
15354;SDS011;7777;52.254;9.618;2024-01-06T07:01:33;14.83;;;10.20;;
15354;SDS011;7777;52.254;9.618;2024-01-06T07:04:00;16.13;;;10.70;;
15354;SDS011;7777;52.254;9.618;2024-01-06T07:06:27;16.47;;;10.13;;
15354;SDS011;7777;52.254;9.618;2024-01-06T07:08:53;16.03;;;10.33;;
15354;SDS011;7777;52.254;9.618;2024-01-06T07:11:21;17.53;;;11.23;;
15354;SDS011;7777;52.254;9.618;2024-01-06T07:13:47;17.63;;;11.57;;
15354;SDS011;7777;52.254;9.618;2024-01-06T07:16:14;17.50;;;12.43;;
15354;SDS011;7777;52.254;9.618;2024-01-06T07:18:40;16.80;;;11.43;;
15354;SDS011;7777;52.254;9.618;2024-01-06T07:21:06;19.17;;;12.27;;
15354;SDS011;7777;52.254;9.618;2024-01-06T07:23:32;20.67;;;11.30;;
15354;SDS011;7777;52.254;9.618;2024-01-06T07:25:58;18.90;;;12.33;;
15354;SDS011;7777;52.254;9.618;2024-01-06T07:28:24;19.50;;;12.30;;
15354;SDS011;7777;52.254;9.618;2024-01-06T07:30:51;16.03;;;11.60;;
15354;SDS011;7777;52.254;9.618;2024-01-06T07:33:17;19.17;;;12.00;;
15354;SDS011;7777;52.254;9.618;2024-01-06T07:35:43;17.63;;;11.67;;
15354;SDS011;7777;52.254;9.618;2024-01-06T07:38:10;20.73;;;12.57;;
15354;SDS011;7777;52.254;9.618;2024-01-06T07:40:36;19.40;;;11.97;;
15354;SDS011;7777;52.254;9.618;2024-01-06T07:43:02;19.93;;;12.90;;
15354;SDS011;7777;52.254;9.618;2024-01-06T07:45:29;19.63;;;13.80;;
15354;SDS011;7777;52.254;9.618;2024-01-06T07:47:56;23.30;;;14.77;;
15354;SDS011;7777;52.254;9.618;2024-01-06T07:50:23;23.17;;;13.70;;
15354;SDS011;7777;52.254;9.618;2024-01-06T07:52:48;19.40;;;12.40;;
15354;SDS011;7777;52.254;9.618;2024-01-06T07:55:14;20.40;;;13.40;;
15354;SDS011;7777;52.254;9.618;2024-01-06T07:57:40;23.27;;;14.40;;
15354;SDS011;7777;52.254;9.618;2024-01-06T08:00:07;21.97;;;14.47;;
15354;SDS011;7777;52.254;9.618;2024-01-06T08:02:35;22.83;;;13.40;;
15354;SDS011;7777;52.254;9.618;2024-01-06T08:05:02;19.97;;;13.00;;
15354;SDS011;7777;52.254;9.618;2024-01-06T08:07:29;20.97;;;13.67;;
15354;SDS011;7777;52.254;9.618;2024-01-06T08:09:55;20.57;;;12.93;;
15354;SDS011;7777;52.254;9.618;2024-01-06T08:12:20;20.10;;;13.40;;
15354;SDS011;7777;52.254;9.618;2024-01-06T08:14:46;21.93;;;13.60;;
15354;SDS011;7777;52.254;9.618;2024-01-06T08:17:12;25.53;;;15.17;;
15354;SDS011;7777;52.254;9.618;2024-01-06T08:19:39;22.53;;;14.07;;
15354;SDS011;7777;52.254;9.618;2024-01-06T08:22:04;22.03;;;14.40;;
15354;SDS011;7777;52.254;9.618;2024-01-06T08:24:32;24.27;;;14.67;;
15354;SDS011;7777;52.254;9.618;2024-01-06T08:26:58;21.90;;;14.03;;
15354;SDS011;7777;52.254;9.618;2024-01-06T08:29:24;20.50;;;13.13;;
15354;SDS011;7777;52.254;9.618;2024-01-06T08:31:50;23.37;;;13.43;;
15354;SDS011;7777;52.254;9.618;2024-01-06T08:34:17;24.40;;;14.43;;
15354;SDS011;7777;52.254;9.618;2024-01-06T08:36:43;22.17;;;14.00;;
15354;SDS011;7777;52.254;9.618;2024-01-06T08:39:10;23.37;;;13.90;;
15354;SDS011;7777;52.254;9.618;2024-01-06T08:41:37;20.67;;;13.90;;
15354;SDS011;7777;52.254;9.618;2024-01-06T08:44:03;21.77;;;13.80;;
15354;SDS011;7777;52.254;9.618;2024-01-06T08:46:29;24.60;;;14.30;;
15354;SDS011;7777;52.254;9.618;2024-01-06T08:48:56;21.80;;;13.63;;
15354;SDS011;7777;52.254;9.618;2024-01-06T08:51:21;21.30;;;14.63;;
15354;SDS011;7777;52.254;9.618;2024-01-06T08:53:49;20.80;;;13.67;;
15354;SDS011;7777;52.254;9.618;2024-01-06T08:56:14;23.03;;;14.03;;
15354;SDS011;7777;52.254;9.618;2024-01-06T08:58:42;24.77;;;15.37;;
15354;SDS011;7777;52.254;9.618;2024-01-06T09:01:08;21.80;;;13.97;;
15354;SDS011;7777;52.254;9.618;2024-01-06T09:03:34;26.47;;;15.67;;
15354;SDS011;7777;52.254;9.618;2024-01-06T09:06:00;23.40;;;15.17;;
15354;SDS011;7777;52.254;9.618;2024-01-06T09:08:26;22.90;;;13.83;;
15354;SDS011;7777;52.254;9.618;2024-01-06T09:10:53;26.87;;;15.77;;
15354;SDS011;7777;52.254;9.618;2024-01-06T09:13:22;28.53;;;14.73;;
15354;SDS011;7777;52.254;9.618;2024-01-06T09:15:49;23.83;;;14.13;;
15354;SDS011;7777;52.254;9.618;2024-01-06T09:18:16;25.13;;;15.03;;
15354;SDS011;7777;52.254;9.618;2024-01-06T09:20:42;26.93;;;15.53;;
15354;SDS011;7777;52.254;9.618;2024-01-06T09:23:07;23.37;;;15.27;;
15354;SDS011;7777;52.254;9.618;2024-01-06T09:25:33;27.33;;;15.57;;
15354;SDS011;7777;52.254;9.618;2024-01-06T09:27:59;25.07;;;15.60;;
15354;SDS011;7777;52.254;9.618;2024-01-06T09:30:25;23.50;;;14.83;;
15354;SDS011;7777;52.254;9.618;2024-01-06T09:32:52;24.13;;;14.70;;
15354;SDS011;7777;52.254;9.618;2024-01-06T09:35:18;26.53;;;14.90;;
15354;SDS011;7777;52.254;9.618;2024-01-06T09:37:44;26.30;;;14.70;;
15354;SDS011;7777;52.254;9.618;2024-01-06T09:40:11;25.90;;;15.20;;
15354;SDS011;7777;52.254;9.618;2024-01-06T09:42:42;24.27;;;14.73;;
15354;SDS011;7777;52.254;9.618;2024-01-06T09:45:07;22.80;;;15.17;;
15354;SDS011;7777;52.254;9.618;2024-01-06T09:47:35;27.83;;;15.17;;
15354;SDS011;7777;52.254;9.618;2024-01-06T09:50:01;27.00;;;15.37;;
15354;SDS011;7777;52.254;9.618;2024-01-06T09:52:31;26.00;;;14.77;;
15354;SDS011;7777;52.254;9.618;2024-01-06T09:54:58;23.43;;;14.23;;
15354;SDS011;7777;52.254;9.618;2024-01-06T09:57:27;21.93;;;14.63;;
15354;SDS011;7777;52.254;9.618;2024-01-06T09:59:53;22.13;;;13.50;;
15354;SDS011;7777;52.254;9.618;2024-01-06T10:02:20;23.87;;;14.67;;
15354;SDS011;7777;52.254;9.618;2024-01-06T10:04:47;24.80;;;16.07;;
15354;SDS011;7777;52.254;9.618;2024-01-06T10:07:14;24.10;;;15.00;;
15354;SDS011;7777;52.254;9.618;2024-01-06T10:09:40;22.10;;;13.43;;
15354;SDS011;7777;52.254;9.618;2024-01-06T10:12:09;21.17;;;13.27;;
15354;SDS011;7777;52.254;9.618;2024-01-06T10:14:35;20.87;;;13.37;;
15354;SDS011;7777;52.254;9.618;2024-01-06T10:17:01;18.97;;;11.87;;
15354;SDS011;7777;52.254;9.618;2024-01-06T10:19:31;18.17;;;11.43;;
15354;SDS011;7777;52.254;9.618;2024-01-06T10:21:56;19.40;;;12.17;;
15354;SDS011;7777;52.254;9.618;2024-01-06T10:24:26;18.73;;;11.90;;
15354;SDS011;7777;52.254;9.618;2024-01-06T10:26:53;21.20;;;12.97;;
15354;SDS011;7777;52.254;9.618;2024-01-06T10:29:19;20.33;;;12.23;;
15354;SDS011;7777;52.254;9.618;2024-01-06T10:31:44;19.53;;;11.60;;
15354;SDS011;7777;52.254;9.618;2024-01-06T10:34:11;18.90;;;10.30;;
15354;SDS011;7777;52.254;9.618;2024-01-06T10:36:39;16.17;;;10.33;;
15354;SDS011;7777;52.254;9.618;2024-01-06T10:39:04;21.33;;;12.57;;
15354;SDS011;7777;52.254;9.618;2024-01-06T10:41:32;17.17;;;10.80;;
15354;SDS011;7777;52.254;9.618;2024-01-06T10:43:59;16.63;;;10.73;;
15354;SDS011;7777;52.254;9.618;2024-01-06T10:46:26;16.63;;;9.60;;
15354;SDS011;7777;52.254;9.618;2024-01-06T10:48:54;15.07;;;8.53;;
15354;SDS011;7777;52.254;9.618;2024-01-06T10:51:22;21.47;;;11.17;;
15354;SDS011;7777;52.254;9.618;2024-01-06T10:53:50;17.53;;;10.63;;
15354;SDS011;7777;52.254;9.618;2024-01-06T10:56:17;16.60;;;9.77;;
15354;SDS011;7777;52.254;9.618;2024-01-06T10:58:47;16.13;;;9.47;;
15354;SDS011;7777;52.254;9.618;2024-01-06T11:01:22;15.83;;;9.40;;
15354;SDS011;7777;52.254;9.618;2024-01-06T11:03:52;16.93;;;9.77;;
15354;SDS011;7777;52.254;9.618;2024-01-06T11:06:20;17.63;;;9.70;;
15354;SDS011;7777;52.254;9.618;2024-01-06T11:09:09;17.23;;;9.53;;
15354;SDS011;7777;52.254;9.618;2024-01-06T11:11:43;16.47;;;9.30;;
15354;SDS011;7777;52.254;9.618;2024-01-06T11:16:58;17.67;;;9.47;;
15354;SDS011;7777;52.254;9.618;2024-01-06T11:24:54;18.80;;;11.10;;
15354;SDS011;7777;52.254;9.618;2024-01-06T11:27:23;17.63;;;10.47;;
15354;SDS011;7777;52.254;9.618;2024-01-06T11:29:54;21.77;;;12.30;;
15354;SDS011;7777;52.254;9.618;2024-01-06T11:32:31;18.83;;;10.97;;
15354;SDS011;7777;52.254;9.618;2024-01-06T11:35:07;22.63;;;12.10;;
15354;SDS011;7777;52.254;9.618;2024-01-06T11:37:50;17.83;;;10.00;;
15354;SDS011;7777;52.254;9.618;2024-01-06T11:42:45;20.07;;;11.13;;
15354;SDS011;7777;52.254;9.618;2024-01-06T11:45:35;19.63;;;10.73;;
15354;SDS011;7777;52.254;9.618;2024-01-06T11:48:06;18.70;;;11.33;;
15354;SDS011;7777;52.254;9.618;2024-01-06T11:50:35;20.00;;;11.10;;
15354;SDS011;7777;52.254;9.618;2024-01-06T11:53:03;18.50;;;11.43;;
15354;SDS011;7777;52.254;9.618;2024-01-06T11:55:30;19.80;;;11.63;;
15354;SDS011;7777;52.254;9.618;2024-01-06T11:57:57;22.37;;;12.00;;
15354;SDS011;7777;52.254;9.618;2024-01-06T12:00:28;22.73;;;12.37;;
15354;SDS011;7777;52.254;9.618;2024-01-06T12:02:57;20.63;;;11.57;;
15354;SDS011;7777;52.254;9.618;2024-01-06T12:05:25;19.93;;;12.03;;
15354;SDS011;7777;52.254;9.618;2024-01-06T12:07:57;20.77;;;11.20;;
15354;SDS011;7777;52.254;9.618;2024-01-06T12:10:28;20.47;;;11.73;;
15354;SDS011;7777;52.254;9.618;2024-01-06T12:12:55;19.97;;;11.60;;
15354;SDS011;7777;52.254;9.618;2024-01-06T12:15:24;21.60;;;12.20;;
15354;SDS011;7777;52.254;9.618;2024-01-06T12:17:51;21.60;;;11.57;;
15354;SDS011;7777;52.254;9.618;2024-01-06T12:20:17;19.80;;;11.40;;
15354;SDS011;7777;52.254;9.618;2024-01-06T12:22:44;22.40;;;12.03;;
15354;SDS011;7777;52.254;9.618;2024-01-06T12:25:09;21.63;;;12.47;;
15354;SDS011;7777;52.254;9.618;2024-01-06T12:27:35;20.73;;;12.23;;
15354;SDS011;7777;52.254;9.618;2024-01-06T12:30:11;25.53;;;14.47;;
15354;SDS011;7777;52.254;9.618;2024-01-06T12:32:43;22.93;;;12.40;;
15354;SDS011;7777;52.254;9.618;2024-01-06T12:35:15;19.87;;;12.20;;
15354;SDS011;7777;52.254;9.618;2024-01-06T12:37:42;19.27;;;10.73;;
15354;SDS011;7777;52.254;9.618;2024-01-06T12:40:10;23.93;;;13.20;;
15354;SDS011;7777;52.254;9.618;2024-01-06T12:42:37;21.70;;;11.87;;
15354;SDS011;7777;52.254;9.618;2024-01-06T12:45:03;21.53;;;12.40;;
15354;SDS011;7777;52.254;9.618;2024-01-06T12:47:32;21.30;;;12.93;;
15354;SDS011;7777;52.254;9.618;2024-01-06T12:49:58;24.17;;;12.30;;
15354;SDS011;7777;52.254;9.618;2024-01-06T12:52:24;20.57;;;12.43;;
15354;SDS011;7777;52.254;9.618;2024-01-06T12:54:50;22.47;;;12.83;;
15354;SDS011;7777;52.254;9.618;2024-01-06T12:57:16;21.80;;;12.47;;
15354;SDS011;7777;52.254;9.618;2024-01-06T12:59:42;18.97;;;11.10;;
15354;SDS011;7777;52.254;9.618;2024-01-06T13:02:08;21.37;;;11.33;;
15354;SDS011;7777;52.254;9.618;2024-01-06T13:04:33;19.20;;;10.83;;
15354;SDS011;7777;52.254;9.618;2024-01-06T13:07:00;21.87;;;10.87;;
15354;SDS011;7777;52.254;9.618;2024-01-06T13:09:26;19.00;;;10.97;;
15354;SDS011;7777;52.254;9.618;2024-01-06T13:11:53;20.20;;;11.10;;
15354;SDS011;7777;52.254;9.618;2024-01-06T13:14:20;21.67;;;11.50;;
15354;SDS011;7777;52.254;9.618;2024-01-06T13:16:46;20.07;;;11.43;;
15354;SDS011;7777;52.254;9.618;2024-01-06T13:19:12;22.20;;;12.80;;
15354;SDS011;7777;52.254;9.618;2024-01-06T13:21:38;22.90;;;12.67;;
15354;SDS011;7777;52.254;9.618;2024-01-06T13:24:05;20.93;;;12.00;;
15354;SDS011;7777;52.254;9.618;2024-01-06T13:26:32;20.70;;;12.57;;
15354;SDS011;7777;52.254;9.618;2024-01-06T13:28:57;21.13;;;12.17;;
15354;SDS011;7777;52.254;9.618;2024-01-06T13:31:24;21.63;;;11.90;;
15354;SDS011;7777;52.254;9.618;2024-01-06T13:33:51;21.57;;;12.30;;
15354;SDS011;7777;52.254;9.618;2024-01-06T13:36:17;20.63;;;12.50;;
15354;SDS011;7777;52.254;9.618;2024-01-06T13:38:45;22.83;;;12.03;;
15354;SDS011;7777;52.254;9.618;2024-01-06T13:41:11;22.43;;;11.70;;
15354;SDS011;7777;52.254;9.618;2024-01-06T13:43:37;20.33;;;10.80;;
15354;SDS011;7777;52.254;9.618;2024-01-06T13:46:03;21.43;;;12.00;;
15354;SDS011;7777;52.254;9.618;2024-01-06T13:48:29;18.70;;;11.30;;
15354;SDS011;7777;52.254;9.618;2024-01-06T13:50:54;19.43;;;10.10;;
15354;SDS011;7777;52.254;9.618;2024-01-06T13:53:22;19.83;;;11.80;;
15354;SDS011;7777;52.254;9.618;2024-01-06T13:55:47;21.53;;;11.97;;
15354;SDS011;7777;52.254;9.618;2024-01-06T13:58:13;19.97;;;12.50;;
15354;SDS011;7777;52.254;9.618;2024-01-06T14:00:39;22.80;;;12.63;;
15354;SDS011;7777;52.254;9.618;2024-01-06T14:03:05;22.60;;;11.63;;
15354;SDS011;7777;52.254;9.618;2024-01-06T14:05:31;20.40;;;11.67;;
15354;SDS011;7777;52.254;9.618;2024-01-06T14:07:58;21.23;;;11.83;;
15354;SDS011;7777;52.254;9.618;2024-01-06T14:10:23;22.43;;;11.47;;
15354;SDS011;7777;52.254;9.618;2024-01-06T14:12:49;19.90;;;11.93;;
15354;SDS011;7777;52.254;9.618;2024-01-06T14:15:15;20.90;;;11.87;;
15354;SDS011;7777;52.254;9.618;2024-01-06T14:17:41;19.03;;;10.90;;
15354;SDS011;7777;52.254;9.618;2024-01-06T14:20:08;21.50;;;11.00;;
15354;SDS011;7777;52.254;9.618;2024-01-06T14:22:34;20.87;;;12.17;;
15354;SDS011;7777;52.254;9.618;2024-01-06T14:25:00;16.53;;;10.20;;
15354;SDS011;7777;52.254;9.618;2024-01-06T14:27:27;18.43;;;11.17;;
15354;SDS011;7777;52.254;9.618;2024-01-06T14:29:54;20.63;;;12.07;;
15354;SDS011;7777;52.254;9.618;2024-01-06T14:32:21;23.53;;;12.83;;
15354;SDS011;7777;52.254;9.618;2024-01-06T14:34:49;20.40;;;12.40;;
15354;SDS011;7777;52.254;9.618;2024-01-06T14:37:16;22.53;;;12.07;;
15354;SDS011;7777;52.254;9.618;2024-01-06T14:39:42;17.57;;;11.17;;
15354;SDS011;7777;52.254;9.618;2024-01-06T14:42:08;18.47;;;10.40;;
15354;SDS011;7777;52.254;9.618;2024-01-06T14:44:34;20.90;;;11.80;;
15354;SDS011;7777;52.254;9.618;2024-01-06T14:47:00;20.53;;;11.27;;
15354;SDS011;7777;52.254;9.618;2024-01-06T14:49:26;24.67;;;11.83;;
15354;SDS011;7777;52.254;9.618;2024-01-06T14:51:52;17.23;;;10.10;;
15354;SDS011;7777;52.254;9.618;2024-01-06T14:54:17;20.50;;;11.63;;